Time;durP1;ratioP1;P1;durP2;ratioP2;P2;SDS_P1;SDS_P2;PMS_P1;PMS_P2;Temp;Humidity;BMP_temperature;BMP_pressure;BME280_temperature;BME280_humidity;BME280_pressure;Samples;Min_cycle;Max_cycle;Signal;HPM_P1;HPM_P2
2023/05/13 00:00:16;;;;;;;10.98;5.63;;;;;;;16.34;100.00;101489.81;2098361;28;20082;-69
2023/05/13 00:01:40;;;;;;;11.23;5.68;;;;;;;16.33;100.00;101496.03;2093962;28;20654;-69
2023/05/13 00:03:02;;;;;;;15.52;6.05;;;;;;;16.30;100.00;101488.00;2093367;28;20436;-69
2023/05/13 00:04:25;;;;;;;10.88;5.57;;;;;;;16.26;100.00;101496.88;2102299;28;20063;-70
2023/05/13 00:05:46;;;;;;;12.93;5.50;;;;;;;16.24;100.00;101501.31;2090222;28;20037;-70
2023/05/13 00:07:08;;;;;;;11.45;5.50;;;;;;;16.22;100.00;101511.03;2090894;28;20074;-69
2023/05/13 00:08:30;;;;;;;9.10;5.22;;;;;;;16.21;100.00;101503.97;2093733;28;20435;-70
2023/05/13 00:09:52;;;;;;;10.70;4.70;;;;;;;16.21;100.00;101512.81;2091917;28;20044;-70
2023/05/13 00:11:15;;;;;;;11.30;4.50;;;;;;;16.22;100.00;101516.38;2093042;28;20048;-70
2023/05/13 00:12:37;;;;;;;11.40;4.97;;;;;;;16.23;100.00;101512.84;2084626;28;20104;-69
2023/05/13 00:14:00;;;;;;;15.35;5.50;;;;;;;16.24;100.00;101518.19;2100178;28;20047;-70
2023/05/13 00:15:23;;;;;;;11.52;4.80;;;;;;;16.24;100.00;101518.19;2098005;28;20105;-70
2023/05/13 00:16:45;;;;;;;15.65;5.35;;;;;;;16.24;100.00;101517.28;2108463;28;20035;-70
2023/05/13 00:18:07;;;;;;;10.63;5.07;;;;;;;16.25;100.00;101513.75;2098466;28;20045;-70
2023/05/13 00:19:29;;;;;;;12.40;5.32;;;;;;;16.24;100.00;101517.28;2092512;28;20634;-70
2023/05/13 00:20:51;;;;;;;10.50;5.28;;;;;;;16.23;100.00;101512.84;2095704;28;20516;-69
2023/05/13 00:22:14;;;;;;;12.82;5.70;;;;;;;16.19;100.00;101519.03;2077928;28;20076;-69
2023/05/13 00:23:35;;;;;;;10.90;5.20;;;;;;;16.12;100.00;101511.91;2099855;28;20052;-70
2023/05/13 00:24:57;;;;;;;11.40;6.25;;;;;;;16.09;100.00;101525.19;2082863;28;20064;-70
2023/05/13 00:26:20;;;;;;;9.88;5.30;;;;;;;16.06;100.00;101518.09;2083489;28;20041;-70
2023/05/13 00:27:43;;;;;;;13.02;6.07;;;;;;;16.05;100.00;101518.97;2082068;28;20068;-70
2023/05/13 00:29:07;;;;;;;13.63;6.40;;;;;;;16.05;100.00;101515.41;2100039;28;20170;-70
2023/05/13 00:30:29;;;;;;;13.20;6.22;;;;;;;16.02;100.00;101526.03;2082702;28;20061;-70
2023/05/13 00:31:52;;;;;;;10.95;5.10;;;;;;;16.00;100.00;101518.06;2083348;28;20148;-70
2023/05/13 00:33:13;;;;;;;12.23;5.53;;;;;;;16.00;100.00;101522.50;2077858;28;20038;-70
2023/05/13 00:34:36;;;;;;;14.23;5.72;;;;;;;16.00;100.00;101527.81;2082932;28;20056;-70
2023/05/13 00:35:58;;;;;;;12.80;5.70;;;;;;;16.00;100.00;101527.81;2088393;28;20041;-70
2023/05/13 00:37:19;;;;;;;13.05;6.20;;;;;;;16.00;100.00;101534.03;2085899;28;20578;-70
2023/05/13 00:38:43;;;;;;;11.60;4.90;;;;;;;16.00;100.00;101533.16;2074878;28;20465;-70
2023/05/13 00:40:08;;;;;;;17.00;5.75;;;;;;;16.01;100.00;101537.59;2099924;28;20075;-70
2023/05/13 00:41:30;;;;;;;11.70;5.00;;;;;;;16.04;100.00;101550.91;2090457;28;20041;-69
2023/05/13 00:42:52;;;;;;;10.48;5.63;;;;;;;16.07;100.00;101543.84;2085762;28;20053;-70
2023/05/13 00:44:17;;;;;;;11.77;5.60;;;;;;;16.10;100.00;101535.88;2094038;28;20170;-70
2023/05/13 00:45:38;;;;;;;10.98;5.05;;;;;;;16.11;100.00;101534.09;2083821;28;20049;-70
2023/05/13 00:47:00;;;;;;;10.65;4.60;;;;;;;16.12;100.00;101538.53;2077528;28;20580;-70
2023/05/13 00:48:23;;;;;;;10.13;5.13;;;;;;;16.13;100.00;101535.00;2077329;28;20528;-70
2023/05/13 00:49:45;;;;;;;11.73;4.95;;;;;;;16.15;100.00;101535.88;2091711;28;20412;-70
2023/05/13 00:51:08;;;;;;;13.68;5.55;;;;;;;16.16;100.00;101529.66;2088297;28;20049;-70
2023/05/13 00:52:30;;;;;;;9.50;5.50;;;;;;;16.15;100.00;101539.44;2080233;28;20060;-70
2023/05/13 00:53:51;;;;;;;11.57;5.70;;;;;;;16.14;100.00;101542.13;2102580;28;20062;-69
2023/05/13 00:55:13;;;;;;;10.75;5.50;;;;;;;16.11;100.00;101542.97;2095696;28;20049;-69
2023/05/13 00:56:38;;;;;;;14.43;5.70;;;;;;;16.11;100.00;101542.97;2093809;28;20044;-70
2023/05/13 00:57:59;;;;;;;9.75;4.80;;;;;;;16.10;100.00;101529.66;2105057;28;20040;-70
2023/05/13 00:59:24;;;;;;;;;;;;;;;16.05;100.00;101542.94;2091054;28;20170;-69
2023/05/13 01:00:54;;;;;;;9.48;4.55;;;;;;;16.05;100.00;101537.63;2077040;28;19972;-70
2023/05/13 01:02:25;;;;;;;10.02;4.97;;;;;;;16.08;100.00;101547.41;2090177;28;20059;-70
2023/05/13 01:03:59;;;;;;;12.15;5.38;;;;;;;16.09;100.00;101543.84;2084108;28;20649;-70
2023/05/13 01:05:29;;;;;;;9.55;4.72;;;;;;;16.10;100.00;101543.84;2086813;28;20052;-70
2023/05/13 01:06:58;;;;;;;11.57;5.00;;;;;;;16.11;100.00;101542.09;2093304;28;20051;-70
2023/05/13 01:08:29;;;;;;;10.00;5.22;;;;;;;16.13;100.00;101549.22;2086833;28;20540;-70
2023/05/13 01:10:01;;;;;;;10.77;4.32;;;;;;;16.13;100.00;101546.56;2093567;28;20114;-70
2023/05/13 01:11:27;;;;;;;8.70;4.40;;;;;;;16.15;100.00;101549.19;2080967;28;20062;-70
2023/05/13 01:12:52;;;;;;;9.48;4.43;;;;;;;16.17;100.00;101552.78;2084424;28;20413;-70
2023/05/13 01:14:20;;;;;;;11.55;5.78;;;;;;;16.20;100.00;101545.72;2094471;28;20100;-69
2023/05/13 01:15:48;;;;;;;11.38;4.90;;;;;;;16.22;100.00;101540.34;2093054;28;20067;-70
2023/05/13 01:17:15;;;;;;;11.27;4.70;;;;;;;16.22;100.00;101553.69;2107658;28;20055;-69
2023/05/13 01:18:39;;;;;;;10.65;4.60;;;;;;;16.23;100.00;101548.38;2089841;28;20056;-70
2023/05/13 01:20:04;;;;;;;12.55;4.60;;;;;;;16.24;100.00;101546.59;2096253;28;20568;-70
2023/05/13 01:21:29;;;;;;;9.80;4.65;;;;;;;16.26;100.00;101551.06;2087986;28;20149;-70
2023/05/13 01:22:50;;;;;;;10.45;5.03;;;;;;;16.25;100.00;101548.38;2099767;28;20051;-70
2023/05/13 01:24:13;;;;;;;14.52;5.75;;;;;;;16.24;100.00;101550.16;2087123;28;20362;-69
2023/05/13 01:25:36;;;;;;;11.52;4.70;;;;;;;16.25;100.00;101545.72;2088642;28;20049;-70
2023/05/13 01:26:57;;;;;;;14.95;5.10;;;;;;;16.25;100.00;101554.59;2081952;28;20090;-70
2023/05/13 01:28:20;;;;;;;10.60;4.80;;;;;;;16.24;100.00;101559.91;2081714;28;20048;-69
2023/05/13 01:29:46;;;;;;;10.40;4.90;;;;;;;16.23;100.00;101552.81;2084542;28;20425;-70
2023/05/13 01:31:14;;;;;;;9.55;4.72;;;;;;;16.23;100.00;101547.47;2079923;28;20070;-70
2023/05/13 01:32:37;;;;;;;10.15;5.43;;;;;;;16.23;100.00;101548.38;2102116;28;20073;-69
2023/05/13 01:34:00;;;;;;;10.25;5.05;;;;;;;16.22;100.00;101549.25;2082924;28;20090;-70
2023/05/13 01:35:24;;;;;;;15.25;5.63;;;;;;;16.21;100.00;101544.78;2075292;28;20141;-70
2023/05/13 01:36:47;;;;;;;;;;;;;;;16.18;100.00;101535.91;2104416;28;20050;-69
2023/05/13 01:38:14;;;;;;;9.27;4.43;;;;;;;16.17;100.00;101542.13;2089303;28;19960;-70
2023/05/13 01:39:39;;;;;;;10.43;5.25;;;;;;;16.17;100.00;101543.00;2084038;28;20056;-69
2023/05/13 01:41:07;;;;;;;10.70;4.70;;;;;;;16.19;100.00;101540.34;2077451;28;20041;-70
2023/05/13 01:42:30;;;;;;;8.10;4.40;;;;;;;16.19;100.00;101545.69;2080038;28;20048;-70
2023/05/13 01:43:53;;;;;;;10.25;4.60;;;;;;;16.19;100.00;101551.00;2085413;28;20490;-70
2023/05/13 01:45:16;;;;;;;12.60;4.65;;;;;;;16.21;100.00;101552.78;2081834;28;20498;-70
2023/05/13 01:46:37;;;;;;;12.07;4.80;;;;;;;16.20;100.00;101552.81;2086765;28;20045;-69
2023/05/13 01:48:00;;;;;;;14.68;5.18;;;;;;;16.17;100.00;101553.66;2088052;28;20044;-69
2023/05/13 01:49:29;;;;;;;11.73;4.90;;;;;;;16.17;100.00;101551.00;2094715;28;20041;-70
2023/05/13 01:50:51;;;;;;;9.50;4.88;;;;;;;16.17;100.00;101552.78;2085450;28;20041;-70
2023/05/13 01:52:15;;;;;;;13.32;4.90;;;;;;;16.17;100.00;101547.44;2085039;28;20049;-69
2023/05/13 01:53:36;;;;;;;11.10;5.10;;;;;;;16.16;100.00;101540.31;2081976;28;20842;-70
2023/05/13 01:54:59;;;;;;;8.95;4.80;;;;;;;16.16;100.00;101549.22;2087508;28;20546;-70
2023/05/13 01:56:22;;;;;;;12.23;5.60;;;;;;;16.16;100.00;101546.53;2090399;28;20079;-70
2023/05/13 01:57:44;;;;;;;9.35;4.80;;;;;;;16.15;100.00;101549.19;2086596;28;20098;-71
2023/05/13 01:59:06;;;;;;;9.90;5.30;;;;;;;16.13;100.00;101541.22;2084101;28;20049;-70
2023/05/13 02:00:27;;;;;;;10.77;4.65;;;;;;;16.13;100.00;101543.88;2077519;28;20041;-70
2023/05/13 02:01:49;;;;;;;11.95;4.80;;;;;;;16.14;100.00;101547.44;2084785;28;20037;-70
2023/05/13 02:03:12;;;;;;;11.65;4.95;;;;;;;16.12;100.00;101539.44;2085327;28;20043;-70
2023/05/13 02:04:33;;;;;;;11.57;5.20;;;;;;;16.12;100.00;101543.88;2085180;28;20524;-69
2023/05/13 02:05:56;;;;;;;10.73;5.00;;;;;;;16.12;100.00;101541.22;2084488;28;20045;-69
2023/05/13 02:07:20;;;;;;;15.88;6.13;;;;;;;16.11;100.00;101550.97;2089661;28;20044;-69
2023/05/13 02:08:42;;;;;;;10.40;5.25;;;;;;;16.09;100.00;101547.41;2083529;28;20425;-69
2023/05/13 02:10:05;;;;;;;15.30;4.90;;;;;;;16.08;100.00;101544.75;2081620;28;20048;-70
2023/05/13 02:11:26;;;;;;;13.00;5.00;;;;;;;16.08;100.00;101544.75;2079860;28;20481;-70
2023/05/13 02:12:52;;;;;;;14.18;5.53;;;;;;;16.08;100.00;101547.41;2079664;28;20090;-69
2023/05/13 02:14:13;;;;;;;10.40;5.05;;;;;;;16.08;100.00;101539.41;2086218;28;20132;-70
2023/05/13 02:15:36;;;;;;;9.07;5.10;;;;;;;16.06;100.00;101544.72;2086381;28;20064;-70
2023/05/13 02:16:57;;;;;;;10.90;5.38;;;;;;;16.06;100.00;101543.84;2081718;28;20323;-70
2023/05/13 02:18:19;;;;;;;14.10;5.18;;;;;;;16.03;100.00;101534.03;2083639;28;20049;-70
2023/05/13 02:19:40;;;;;;;11.23;5.18;;;;;;;16.04;100.00;101541.16;2082301;28;20128;-69
2023/05/13 02:21:04;;;;;;;10.07;5.45;;;;;;;16.02;100.00;101542.91;2095398;28;20153;-69
2023/05/13 02:22:27;;;;;;;12.45;5.70;;;;;;;16.02;100.00;101542.03;2085053;28;20128;-70
2023/05/13 02:23:49;;;;;;;9.25;5.03;;;;;;;16.01;100.00;101546.50;2095312;28;20048;-70
2023/05/13 02:25:11;;;;;;;15.55;5.07;;;;;;;15.99;100.00;101550.00;2095003;28;20032;-69
2023/05/13 02:26:33;;;;;;;10.27;5.38;;;;;;;15.98;100.00;101559.78;2086654;28;20631;-70
2023/05/13 02:27:55;;;;;;;9.38;5.28;;;;;;;15.96;100.00;101561.53;2083647;28;20151;-70
2023/05/13 02:29:17;;;;;;;14.65;5.63;;;;;;;15.95;100.00;101555.31;2094962;28;20369;-70
2023/05/13 02:30:39;;;;;;;17.45;5.60;;;;;;;15.94;100.00;101553.53;2081092;28;20054;-70
2023/05/13 02:32:00;;;;;;;9.98;4.70;;;;;;;15.93;100.00;101557.09;2084539;28;20052;-69
2023/05/13 02:33:23;;;;;;;13.32;5.25;;;;;;;15.93;100.00;101557.09;2078135;28;20042;-69
2023/05/13 02:34:47;;;;;;;12.07;5.82;;;;;;;15.92;100.00;101563.28;2084947;28;20071;-69
2023/05/13 02:36:10;;;;;;;14.02;5.43;;;;;;;15.93;100.00;101570.41;2078993;28;20132;-70
2023/05/13 02:37:33;;;;;;;13.73;6.35;;;;;;;15.92;100.00;101563.28;2078525;28;20494;-70
2023/05/13 02:38:57;;;;;;;12.05;5.43;;;;;;;15.92;100.00;101567.72;2076427;28;20102;-70
2023/05/13 02:40:19;;;;;;;13.68;5.70;;;;;;;15.91;100.00;101566.81;2098045;28;20055;-70
2023/05/13 02:41:43;;;;;;;12.50;5.95;;;;;;;15.92;100.00;101571.28;2089525;28;20150;-70
2023/05/13 02:43:04;;;;;;;13.63;5.57;;;;;;;15.92;100.00;101565.94;2079513;28;20056;-70
2023/05/13 02:44:56;;;;;;;10.70;5.80;;;;;;;15.91;100.00;101576.59;2104404;28;20036;-70
2023/05/13 02:46:20;;;;;;;9.65;5.63;;;;;;;15.90;100.00;101569.47;2083719;28;20049;-70
2023/05/13 02:47:43;;;;;;;10.93;5.13;;;;;;;15.88;100.00;101574.78;2075604;28;20053;-69
2023/05/13 02:49:04;;;;;;;10.65;5.82;;;;;;;15.88;100.00;101574.78;2100811;28;20146;-70
2023/05/13 02:50:27;;;;;;;12.60;5.68;;;;;;;15.86;100.00;101565.91;2083938;28;20041;-70
2023/05/13 02:51:51;;;;;;;14.05;5.25;;;;;;;15.87;100.00;101572.13;2080046;28;20508;-70
2023/05/13 02:53:18;;;;;;;11.65;5.35;;;;;;;15.86;100.00;101560.59;2101837;28;20843;-70
2023/05/13 02:54:47;;;;;;;8.75;5.03;;;;;;;15.88;100.00;101563.28;2085918;28;20041;-70
2023/05/13 02:56:10;;;;;;;11.73;5.05;;;;;;;15.87;100.00;101558.81;2075694;28;20065;-70
2023/05/13 02:57:31;;;;;;;10.63;5.40;;;;;;;15.88;100.00;101563.28;2104762;28;20070;-70
2023/05/13 02:58:54;;;;;;;13.32;5.50;;;;;;;15.85;100.00;101564.13;2090611;28;20045;-70
2023/05/13 03:00:16;;;;;;;10.88;5.55;;;;;;;15.85;100.00;101563.22;2084944;28;20072;-70
2023/05/13 03:01:38;;;;;;;11.55;5.78;;;;;;;15.83;100.00;101565.88;2092014;28;20048;-69
2023/05/13 03:02:59;;;;;;;10.60;5.70;;;;;;;15.81;100.00;101564.09;2085568;28;20041;-69
2023/05/13 03:04:21;;;;;;;12.35;5.20;;;;;;;15.81;100.00;101561.44;2091089;28;20048;-70
2023/05/13 03:05:44;;;;;;;10.18;5.15;;;;;;;15.80;100.00;101567.66;2097573;28;20056;-70
2023/05/13 03:07:05;;;;;;;11.90;4.80;;;;;;;15.79;100.00;101561.44;2093061;28;20036;-70
2023/05/13 03:08:29;;;;;;;10.55;5.32;;;;;;;15.81;100.00;101558.78;2089810;28;20694;-70
2023/05/13 03:09:50;;;;;;;10.65;5.50;;;;;;;15.80;100.00;101562.31;2089412;28;20075;-70
2023/05/13 03:11:12;;;;;;;11.55;5.20;;;;;;;15.80;100.00;101573.84;2085852;28;20061;-70
2023/05/13 03:12:33;;;;;;;11.43;5.05;;;;;;;15.80;100.00;101578.28;2093670;28;20040;-70
2023/05/13 03:13:56;;;;;;;14.60;5.40;;;;;;;15.79;100.00;101581.84;2089453;28;20057;-69
2023/05/13 03:15:17;;;;;;;15.70;5.10;;;;;;;15.78;100.00;101585.38;2094461;28;20037;-70
2023/05/13 03:16:40;;;;;;;12.38;5.82;;;;;;;15.77;100.00;101575.59;2085223;28;20041;-70
2023/05/13 03:18:01;;;;;;;10.95;4.95;;;;;;;15.77;100.00;101576.47;2108373;28;20058;-70
2023/05/13 03:19:24;;;;;;;12.23;5.25;;;;;;;15.78;100.00;101574.72;2082930;28;20045;-70
2023/05/13 03:20:46;;;;;;;11.63;5.43;;;;;;;15.80;100.00;101572.97;2085645;28;20052;-70
2023/05/13 03:22:08;;;;;;;10.10;5.03;;;;;;;15.81;100.00;101580.97;2092916;28;20577;-69
2023/05/13 03:23:33;;;;;;;13.60;5.45;;;;;;;15.81;100.00;101580.97;2082755;28;20095;-70
2023/05/13 03:24:57;;;;;;;12.05;6.07;;;;;;;15.80;100.00;101573.84;2091643;28;20663;-70
2023/05/13 03:26:25;;;;;;;11.93;5.30;;;;;;;15.79;100.00;101579.16;2084146;28;20471;-70
2023/05/13 03:27:47;;;;;;;14.77;5.30;;;;;;;15.77;100.00;101592.47;2094837;28;20055;-70
2023/05/13 03:29:11;;;;;;;9.10;4.90;;;;;;;15.78;100.00;101585.38;2088397;28;20048;-70
2023/05/13 03:30:32;;;;;;;9.55;4.82;;;;;;;15.80;100.00;101589.84;2100505;28;20040;-69
2023/05/13 03:32:00;;;;;;;10.93;4.68;;;;;;;15.82;100.00;101587.16;2082239;28;20116;-70
2023/05/13 03:33:22;;;;;;;10.85;4.97;;;;;;;15.83;100.00;101592.50;2100407;28;20056;-71
2023/05/13 03:34:47;;;;;;;9.82;4.57;;;;;;;15.83;100.00;101595.16;2095069;28;20043;-70
2023/05/13 03:36:12;;;;;;;9.23;5.07;;;;;;;15.85;100.00;101588.09;2087190;28;20053;-70
2023/05/13 03:37:33;;;;;;;10.82;4.88;;;;;;;15.87;100.00;101590.78;2102307;28;20359;-70
2023/05/13 03:38:57;;;;;;;8.55;5.00;;;;;;;15.88;100.00;101593.41;2089736;28;20053;-70
2023/05/13 03:40:18;;;;;;;11.80;5.32;;;;;;;15.88;100.00;101604.06;2083756;28;20102;-70
2023/05/13 03:41:41;;;;;;;10.70;4.35;;;;;;;15.88;100.00;101604.06;2085939;28;20108;-70
2023/05/13 03:43:04;;;;;;;8.98;4.65;;;;;;;15.91;100.00;101601.44;2082770;28;20033;-70
2023/05/13 03:44:26;;;;;;;11.15;4.45;;;;;;;15.94;100.00;101604.16;2083738;28;20124;-70
2023/05/13 03:45:50;;;;;;;10.07;4.38;;;;;;;15.97;100.00;101603.25;2091601;28;20036;-69
2023/05/13 03:47:15;;;;;;;10.43;4.78;;;;;;;16.04;100.00;101602.41;2084942;28;20041;-70
2023/05/13 03:48:36;;;;;;;10.85;5.22;;;;;;;16.11;100.00;101601.59;2080166;28;20068;-70
2023/05/13 03:50:00;;;;;;;9.88;4.85;;;;;;;16.18;100.00;101599.84;2093633;28;20106;-70
2023/05/13 03:51:23;;;;;;;10.52;5.10;;;;;;;16.24;100.00;101611.44;2080908;28;20048;-70
2023/05/13 03:52:45;;;;;;;9.05;4.43;;;;;;;16.28;100.00;101613.22;2088838;28;20139;-70
2023/05/13 03:54:09;;;;;;;10.15;4.30;;;;;;;16.35;100.00;101616.81;2075107;28;20044;-70
2023/05/13 03:55:31;;;;;;;8.73;3.70;;;;;;;16.42;100.00;101612.41;2081931;28;20084;-70
2023/05/13 03:56:54;;;;;;;6.03;3.45;;;;;;;16.49;100.00;101608.91;2098290;28;20052;-70
2023/05/13 03:58:16;;;;;;;6.95;3.28;;;;;;;16.56;100.00;101611.59;2096965;28;20105;-69
2023/05/13 03:59:38;;;;;;;8.48;3.30;;;;;;;16.66;100.00;101617.91;2102007;28;20059;-70
2023/05/13 04:01:01;;;;;;;7.35;3.75;;;;;;;16.74;100.00;101618.81;2087935;28;20053;-69
2023/05/13 04:02:22;;;;;;;7.13;3.95;;;;;;;16.82;100.00;101621.53;2102593;28;20462;-70
2023/05/13 04:03:45;;;;;;;10.07;3.58;;;;;;;16.90;100.00;101630.44;2084784;28;20049;-68
2023/05/13 04:05:08;;;;;;;9.02;3.60;;;;;;;16.96;100.00;101619.78;2090196;28;20044;-68
2023/05/13 04:06:30;;;;;;;8.63;3.65;;;;;;;17.04;100.00;101620.72;2094401;28;20051;-69
2023/05/13 04:07:51;;;;;;;9.63;3.47;;;;;;;17.12;100.00;101614.53;2091941;28;20052;-69
2023/05/13 04:09:15;;;;;;;9.82;3.30;;;;;;;17.20;100.00;101622.53;2085088;28;20043;-69
2023/05/13 04:10:38;;;;;;;9.65;3.53;;;;;;;17.28;100.00;101628.78;2075170;28;20099;-69
2023/05/13 04:12:00;;;;;;;8.10;3.00;;;;;;;17.38;100.00;101627.91;2083290;28;20062;-69
2023/05/13 04:13:22;;;;;;;7.75;3.20;;;;;;;17.45;100.00;101627.03;2089081;28;20041;-69
2023/05/13 04:14:45;;;;;;;6.65;2.72;;;;;;;17.55;100.00;101630.59;2090835;28;20044;-69
2023/05/13 04:16:08;;;;;;;7.30;3.00;;;;;;;17.63;100.00;101622.63;2106294;28;20121;-69
2023/05/13 04:17:29;;;;;;;7.75;3.05;;;;;;;17.73;100.00;101621.72;2092117;28;20049;-68
2023/05/13 04:18:51;;;;;;;8.07;3.10;;;;;;;17.82;100.00;101627.09;2084625;28;20048;-68
2023/05/13 04:20:12;;;;;;;7.10;2.85;;;;;;;17.93;100.00;101625.28;2082365;28;20048;-68
2023/05/13 04:21:35;;;;;;;8.63;2.90;;;;;;;18.02;100.00;101621.72;2099928;28;20123;-68
2023/05/13 04:22:56;;;;;;;7.25;2.67;;;;;;;18.07;100.00;101619.94;2083868;28;20053;-68
2023/05/13 04:24:20;;;;;;;6.15;2.85;;;;;;;18.10;100.00;101625.28;2093913;28;20040;-70
2023/05/13 04:25:51;;;;;;;6.53;2.97;;;;;;;18.10;100.00;101623.50;2092991;28;20083;-70
2023/05/13 04:27:12;;;;;;;7.72;2.83;;;;;;;18.09;100.00;101626.16;2095929;28;20452;-69
2023/05/13 04:28:35;;;;;;;5.20;2.47;;;;;;;18.12;100.00;101632.38;2084437;28;20537;-70
2023/05/13 04:29:57;;;;;;;9.73;3.20;;;;;;;18.20;100.00;101629.72;2089691;28;20143;-70
2023/05/13 04:31:20;;;;;;;6.57;2.60;;;;;;;18.32;100.00;101637.69;2078346;28;20046;-70
2023/05/13 04:32:42;;;;;;;8.38;2.67;;;;;;;18.43;100.00;101641.25;2094179;28;20393;-70
2023/05/13 04:34:05;;;;;;;6.45;2.55;;;;;;;18.53;100.00;101637.66;2084267;28;20532;-70
2023/05/13 04:35:26;;;;;;;6.18;2.50;;;;;;;18.62;100.00;101629.66;2082878;28;20091;-70
2023/05/13 04:36:54;;;;;;;5.38;2.60;;;;;;;18.71;100.00;101636.72;2080444;28;20033;-70
2023/05/13 04:38:15;;;;;;;7.25;2.33;;;;;;;18.78;100.00;101633.13;2090157;28;20079;-70
2023/05/13 04:39:39;;;;;;;7.43;2.42;;;;;;;18.89;100.00;101642.03;2089460;28;20444;-70
2023/05/13 04:41:02;;;;;;;6.93;2.35;;;;;;;18.96;100.00;101635.75;2087975;28;20036;-69
2023/05/13 04:42:30;;;;;;;7.88;2.55;;;;;;;19.06;100.00;101642.81;2086168;28;20115;-70
2023/05/13 04:43:53;;;;;;;6.72;2.08;;;;;;;19.14;100.00;101641.91;2081844;28;20041;-70
2023/05/13 04:45:15;;;;;;;7.13;2.20;;;;;;;19.18;100.00;101638.28;2079679;28;20497;-70
2023/05/13 04:46:39;;;;;;;5.30;2.83;;;;;;;19.25;100.00;101635.56;2088684;28;20056;-70
2023/05/13 04:48:01;;;;;;;6.80;2.40;;;;;;;19.31;100.00;101640.88;2087766;28;20059;-70
2023/05/13 04:49:23;;;;;;;5.45;2.28;;;;;;;19.41;100.00;101631.91;2083122;28;20041;-70
2023/05/13 04:50:45;;;;;;;9.05;2.45;;;;;;;19.52;100.00;101633.66;2084330;28;20052;-70
2023/05/13 04:52:08;;;;;;;5.68;2.42;;;;;;;19.63;100.00;101637.13;2107005;28;20138;-70
2023/05/13 04:53:31;;;;;;;7.57;2.00;;;;;;;19.71;100.00;101635.28;2090288;28;20143;-71
2023/05/13 04:54:57;;;;;;;4.18;2.05;;;;;;;19.79;100.00;101637.00;2086007;28;20083;-70
2023/05/13 04:56:19;;;;;;;5.38;2.17;;;;;;;19.87;100.00;101637.84;2105666;28;20043;-70
2023/05/13 04:57:41;;;;;;;4.75;1.80;;;;;;;19.97;100.00;101635.06;2085615;28;20155;-70
2023/05/13 04:59:04;;;;;;;4.95;1.75;;;;;;;20.04;100.00;101637.69;2085432;28;20079;-70
2023/05/13 05:00:26;;;;;;;8.73;2.08;;;;;;;20.12;100.00;101643.88;2085626;28;20806;-70
2023/05/13 05:01:49;;;;;;;5.35;1.92;;;;;;;20.17;100.00;101635.78;2085522;28;20049;-70
2023/05/13 05:03:12;;;;;;;7.97;1.95;;;;;;;20.20;100.00;101646.47;2088170;28;20055;-70
2023/05/13 05:04:34;;;;;;;5.60;2.10;;;;;;;20.28;100.00;101656.22;2079994;28;20046;-70
2023/05/13 05:05:58;;;;;;;9.95;2.42;;;;;;;20.38;100.00;101650.78;2097774;28;20051;-70
2023/05/13 05:07:20;;;;;;;7.53;2.38;;;;;;;20.48;100.00;101644.44;2087819;28;20047;-70
2023/05/13 05:08:43;;;;;;;6.78;1.70;;;;;;;20.58;100.00;101649.69;2082868;28;20044;-70
2023/05/13 05:10:08;;;;;;;5.15;1.90;;;;;;;20.69;100.00;101662.97;2091371;28;20044;-70
2023/05/13 05:11:32;;;;;;;6.72;1.90;;;;;;;20.74;100.00;101655.75;2081974;28;20051;-70
2023/05/13 05:12:53;;;;;;;6.00;1.85;;;;;;;20.83;100.00;101657.44;2080799;28;20093;-70
2023/05/13 05:14:17;;;;;;;4.63;1.80;;;;;;;20.95;100.00;101665.31;2075702;28;20051;-70
2023/05/13 05:15:40;;;;;;;5.75;1.75;;;;;;;20.97;100.00;101666.19;2082842;28;20110;-69
2023/05/13 05:17:02;;;;;;;7.25;2.20;;;;;;;21.02;100.00;101656.28;2085121;28;20045;-70
2023/05/13 05:18:25;;;;;;;7.60;2.30;;;;;;;21.11;100.00;101660.66;2085323;28;20692;-71
2023/05/13 05:19:46;;;;;;;5.00;1.80;;;;;;;21.21;100.00;101665.00;2082965;28;20045;-70
2023/05/13 05:21:10;;;;;;;6.75;1.88;;;;;;;21.31;100.00;101670.25;2085758;28;20067;-70
2023/05/13 05:22:31;;;;;;;6.35;2.35;;;;;;;21.39;100.00;101668.34;2079881;28;20098;-70
2023/05/13 05:23:54;;;;;;;4.75;2.28;;;;;;;21.45;100.00;101668.28;2078676;28;20041;-70
2023/05/13 05:25:16;;;;;;;7.70;1.83;;;;;;;21.55;100.00;101666.31;2094105;28;20068;-70
2023/05/13 05:26:39;;;;;;;3.88;1.95;;;;;;;21.65;100.00;101664.38;2087829;28;20058;-69
2023/05/13 05:28:03;;;;;;;5.93;1.75;;;;;;;21.79;100.00;101654.31;2091372;28;20418;-69
2023/05/13 05:29:27;;;;;;;7.00;2.20;;;;;;;21.93;99.62;101664.81;2084939;28;20048;-69
2023/05/13 05:30:49;;;;;;;4.75;1.85;;;;;;;22.08;98.68;101654.72;2080901;28;20077;-70
2023/05/13 05:32:16;;;;;;;6.28;1.75;;;;;;;22.24;97.57;101668.81;2079595;28;20049;-70
2023/05/13 05:33:38;;;;;;;7.18;2.42;;;;;;;22.33;94.82;101662.34;2083798;28;20053;-70
2023/05/13 05:35:02;;;;;;;5.35;2.20;;;;;;;22.36;90.39;101657.81;2099244;28;20099;-69
2023/05/13 05:36:25;;;;;;;4.28;1.75;;;;;;;22.42;88.58;101659.50;2085497;28;20175;-70
2023/05/13 05:37:48;;;;;;;6.90;2.10;;;;;;;22.47;88.71;101655.78;2082623;28;20273;-70
2023/05/13 05:39:11;;;;;;;6.13;1.55;;;;;;;22.57;89.50;101669.97;2078390;28;20049;-70
2023/05/13 05:40:35;;;;;;;5.80;1.83;;;;;;;22.70;89.48;101659.84;2090960;28;20082;-70
2023/05/13 05:41:57;;;;;;;4.90;1.75;;;;;;;22.76;89.32;101655.25;2080642;28;20053;-70
2023/05/13 05:43:20;;;;;;;5.57;1.85;;;;;;;22.89;88.51;101661.28;2080995;28;20119;-70
2023/05/13 05:44:41;;;;;;;8.00;1.92;;;;;;;23.00;88.44;101664.63;2082888;28;20036;-70
2023/05/13 05:46:03;;;;;;;6.30;2.00;;;;;;;23.10;87.16;101670.72;2083624;28;20056;-70
2023/05/13 05:47:25;;;;;;;7.05;1.73;;;;;;;23.22;85.86;101668.66;2084750;28;20067;-70
2023/05/13 05:48:48;;;;;;;8.30;2.08;;;;;;;23.34;82.25;101662.09;2095520;28;20060;-70
2023/05/13 05:50:11;;;;;;;6.60;1.85;;;;;;;23.43;79.78;101664.59;2086764;28;20791;-69
2023/05/13 05:51:32;;;;;;;6.30;1.90;;;;;;;23.48;80.68;101646.53;2084760;28;20057;-69
2023/05/13 05:52:58;;;;;;;7.50;1.75;;;;;;;23.55;81.64;101666.13;2088382;28;20404;-69
2023/05/13 05:54:21;;;;;;;7.53;2.40;;;;;;;23.63;82.53;101667.72;2086243;28;20186;-69
2023/05/13 05:55:45;;;;;;;11.48;2.38;;;;;;;23.66;83.72;101667.66;2085930;28;20045;-69
2023/05/13 05:57:10;;;;;;;6.78;2.05;;;;;;;23.68;84.69;101673.00;2083181;28;20045;-69
2023/05/13 05:58:31;;;;;;;6.63;1.70;;;;;;;23.61;84.82;101671.38;2086648;28;20489;-69
2023/05/13 05:59:54;;;;;;;5.85;1.80;;;;;;;23.70;85.24;101654.97;2090534;28;20044;-69
2023/05/13 06:01:16;;;;;;;7.72;2.10;;;;;;;23.83;83.11;101676.22;2085952;28;20044;-69
2023/05/13 06:02:38;;;;;;;7.30;2.08;;;;;;;23.97;81.49;101673.16;2086127;28;20053;-70
2023/05/13 06:04:00;;;;;;;5.80;1.92;;;;;;;24.00;80.99;101675.81;2073539;28;20044;-69
2023/05/13 06:05:23;;;;;;;7.03;2.10;;;;;;;24.06;81.59;101658.56;2088090;28;20059;-69
2023/05/13 06:06:45;;;;;;;9.38;2.20;;;;;;;24.11;82.41;101664.72;2102177;28;20156;-69
2023/05/13 06:08:08;;;;;;;7.15;1.98;;;;;;;24.15;82.63;101663.75;2094801;28;20103;-69
2023/05/13 06:09:30;;;;;;;7.30;2.20;;;;;;;24.23;83.48;101670.72;2090241;28;20633;-69
2023/05/13 06:10:54;;;;;;;9.38;1.85;;;;;;;24.42;84.18;101673.81;2087833;28;20468;-69
2023/05/13 06:12:16;;;;;;;8.15;2.10;;;;;;;24.56;80.31;101674.31;2095572;28;20036;-69
2023/05/13 06:13:39;;;;;;;4.88;1.90;;;;;;;24.52;79.21;101679.88;2081730;28;20077;-69
2023/05/13 06:15:01;;;;;;;7.88;2.50;;;;;;;24.51;79.64;101683.47;2083474;28;20056;-69
2023/05/13 06:16:23;;;;;;;9.02;2.55;;;;;;;24.53;80.39;101674.44;2091488;28;20134;-70
2023/05/13 06:17:45;;;;;;;7.50;2.55;;;;;;;24.52;77.03;101678.03;2087589;28;20053;-70
2023/05/13 06:19:08;;;;;;;7.65;1.80;;;;;;;24.43;77.73;101680.09;2078552;28;20096;-70
2023/05/13 06:20:31;;;;;;;7.65;2.20;;;;;;;24.45;79.55;101680.97;2082015;28;20049;-70